sensor_id;sensor_type;location;lat;lon;timestamp;P1;durP1;ratioP1;P2;durP2;ratioP2
76867;SDS011;66168;45.478;11.060;2023-02-15T00:00:01;15.50;;;9.30;;
76867;SDS011;66168;45.478;11.060;2023-02-15T00:02:32;18.50;;;9.90;;
76867;SDS011;66168;45.478;11.060;2023-02-15T00:04:58;18.10;;;10.30;;
76867;SDS011;66168;45.478;11.060;2023-02-15T00:07:25;16.90;;;10.00;;
76867;SDS011;66168;45.478;11.060;2023-02-15T00:09:52;17.80;;;9.60;;
76867;SDS011;66168;45.478;11.060;2023-02-15T00:12:18;16.50;;;8.50;;
76867;SDS011;66168;45.478;11.060;2023-02-15T00:14:45;16.60;;;9.60;;
76867;SDS011;66168;45.478;11.060;2023-02-15T00:17:12;15.00;;;8.80;;
76867;SDS011;66168;45.478;11.060;2023-02-15T00:19:38;17.00;;;9.30;;
76867;SDS011;66168;45.478;11.060;2023-02-15T00:22:06;18.00;;;9.70;;
76867;SDS011;66168;45.478;11.060;2023-02-15T00:24:33;19.00;;;9.80;;
76867;SDS011;66168;45.478;11.060;2023-02-15T00:26:59;19.30;;;10.10;;
76867;SDS011;66168;45.478;11.060;2023-02-15T00:29:26;20.10;;;11.60;;
76867;SDS011;66168;45.478;11.060;2023-02-15T00:31:53;22.40;;;12.60;;
76867;SDS011;66168;45.478;11.060;2023-02-15T00:34:26;27.10;;;15.10;;
76867;SDS011;66168;45.478;11.060;2023-02-15T00:36:55;25.00;;;14.00;;
76867;SDS011;66168;45.478;11.060;2023-02-15T00:39:22;26.20;;;15.50;;
76867;SDS011;66168;45.478;11.060;2023-02-15T00:41:50;25.60;;;14.30;;
76867;SDS011;66168;45.478;11.060;2023-02-15T00:44:17;26.20;;;15.40;;
76867;SDS011;66168;45.478;11.060;2023-02-15T00:46:43;22.90;;;13.00;;
76867;SDS011;66168;45.478;11.060;2023-02-15T00:49:11;22.40;;;13.60;;
76867;SDS011;66168;45.478;11.060;2023-02-15T00:51:38;23.50;;;13.40;;
76867;SDS011;66168;45.478;11.060;2023-02-15T00:54:06;21.90;;;12.20;;
76867;SDS011;66168;45.478;11.060;2023-02-15T00:56:33;22.40;;;11.90;;
76867;SDS011;66168;45.478;11.060;2023-02-15T00:59:00;20.60;;;11.20;;
76867;SDS011;66168;45.478;11.060;2023-02-15T01:01:26;21.80;;;12.60;;
76867;SDS011;66168;45.478;11.060;2023-02-15T01:03:53;20.60;;;11.60;;
76867;SDS011;66168;45.478;11.060;2023-02-15T01:06:20;19.40;;;10.30;;
76867;SDS011;66168;45.478;11.060;2023-02-15T01:08:47;18.60;;;10.60;;
76867;SDS011;66168;45.478;11.060;2023-02-15T01:11:16;21.00;;;11.00;;
76867;SDS011;66168;45.478;11.060;2023-02-15T01:13:50;17.90;;;10.40;;
76867;SDS011;66168;45.478;11.060;2023-02-15T01:16:19;17.90;;;10.10;;
76867;SDS011;66168;45.478;11.060;2023-02-15T01:18:46;15.90;;;10.00;;
76867;SDS011;66168;45.478;11.060;2023-02-15T01:21:15;16.80;;;9.40;;
76867;SDS011;66168;45.478;11.060;2023-02-15T01:23:43;22.30;;;11.10;;
76867;SDS011;66168;45.478;11.060;2023-02-15T01:26:11;18.60;;;10.60;;
76867;SDS011;66168;45.478;11.060;2023-02-15T01:28:39;19.60;;;11.10;;
76867;SDS011;66168;45.478;11.060;2023-02-15T01:31:07;20.40;;;10.60;;
76867;SDS011;66168;45.478;11.060;2023-02-15T01:33:36;18.80;;;10.30;;
76867;SDS011;66168;45.478;11.060;2023-02-15T01:36:04;17.80;;;10.40;;
76867;SDS011;66168;45.478;11.060;2023-02-15T01:38:31;19.60;;;10.70;;
76867;SDS011;66168;45.478;11.060;2023-02-15T01:40:58;16.10;;;10.40;;
76867;SDS011;66168;45.478;11.060;2023-02-15T01:44:40;19.40;;;9.60;;
76867;SDS011;66168;45.478;11.060;2023-02-15T01:46:51;19.60;;;10.70;;
76867;SDS011;66168;45.478;11.060;2023-02-15T01:49:19;18.50;;;10.30;;
76867;SDS011;66168;45.478;11.060;2023-02-15T01:51:52;20.30;;;11.40;;
76867;SDS011;66168;45.478;11.060;2023-02-15T01:54:23;22.30;;;11.60;;
76867;SDS011;66168;45.478;11.060;2023-02-15T01:59:24;22.00;;;11.50;;
76867;SDS011;66168;45.478;11.060;2023-02-15T02:01:52;23.00;;;13.20;;
76867;SDS011;66168;45.478;11.060;2023-02-15T02:04:31;21.60;;;12.80;;
76867;SDS011;66168;45.478;11.060;2023-02-15T02:07:04;24.60;;;12.70;;
76867;SDS011;66168;45.478;11.060;2023-02-15T02:09:33;18.80;;;11.40;;
76867;SDS011;66168;45.478;11.060;2023-02-15T02:12:02;20.30;;;12.10;;
76867;SDS011;66168;45.478;11.060;2023-02-15T02:14:28;24.60;;;12.90;;
76867;SDS011;66168;45.478;11.060;2023-02-15T02:17:03;20.50;;;11.50;;
76867;SDS011;66168;45.478;11.060;2023-02-15T02:43:00;22.10;;;11.30;;
76867;SDS011;66168;45.478;11.060;2023-02-15T02:45:41;17.80;;;10.70;;
76867;SDS011;66168;45.478;11.060;2023-02-15T02:48:13;19.90;;;10.00;;
76867;SDS011;66168;45.478;11.060;2023-02-15T02:50:48;14.90;;;9.30;;
76867;SDS011;66168;45.478;11.060;2023-02-15T02:53:15;18.30;;;10.30;;
76867;SDS011;66168;45.478;11.060;2023-02-15T02:55:44;20.90;;;11.50;;
76867;SDS011;66168;45.478;11.060;2023-02-15T02:58:24;19.50;;;10.60;;
76867;SDS011;66168;45.478;11.060;2023-02-15T03:01:00;19.00;;;9.50;;
76867;SDS011;66168;45.478;11.060;2023-02-15T03:03:41;22.00;;;10.80;;
76867;SDS011;66168;45.478;11.060;2023-02-15T03:06:13;18.50;;;9.70;;
76867;SDS011;66168;45.478;11.060;2023-02-15T03:08:48;17.40;;;9.70;;
76867;SDS011;66168;45.478;11.060;2023-02-15T03:11:33;16.80;;;9.30;;
76867;SDS011;66168;45.478;11.060;2023-02-15T03:14:00;18.10;;;9.50;;
76867;SDS011;66168;45.478;11.060;2023-02-15T03:16:27;17.90;;;9.80;;
76867;SDS011;66168;45.478;11.060;2023-02-15T03:21:49;16.00;;;9.10;;
76867;SDS011;66168;45.478;11.060;2023-02-15T03:24:51;16.60;;;9.80;;
76867;SDS011;66168;45.478;11.060;2023-02-15T03:27:45;17.90;;;10.20;;
76867;SDS011;66168;45.478;11.060;2023-02-15T03:30:15;16.80;;;10.10;;
76867;SDS011;66168;45.478;11.060;2023-02-15T03:32:47;18.50;;;9.70;;
76867;SDS011;66168;45.478;11.060;2023-02-15T03:35:17;17.90;;;9.50;;
76867;SDS011;66168;45.478;11.060;2023-02-15T03:37:47;18.10;;;10.40;;
76867;SDS011;66168;45.478;11.060;2023-02-15T03:43:17;18.40;;;10.00;;
76867;SDS011;66168;45.478;11.060;2023-02-15T03:45:52;18.10;;;10.00;;
76867;SDS011;66168;45.478;11.060;2023-02-15T03:48:22;21.40;;;10.50;;
76867;SDS011;66168;45.478;11.060;2023-02-15T03:50:54;16.80;;;9.40;;
76867;SDS011;66168;45.478;11.060;2023-02-15T03:53:43;16.30;;;9.00;;
76867;SDS011;66168;45.478;11.060;2023-02-15T03:56:12;19.90;;;10.10;;
76867;SDS011;66168;45.478;11.060;2023-02-15T03:58:39;20.20;;;10.50;;
76867;SDS011;66168;45.478;11.060;2023-02-15T04:04:20;18.60;;;9.10;;
76867;SDS011;66168;45.478;11.060;2023-02-15T04:06:50;16.30;;;9.40;;
76867;SDS011;66168;45.478;11.060;2023-02-15T04:09:17;16.20;;;8.90;;
76867;SDS011;66168;45.478;11.060;2023-02-15T04:12:03;17.30;;;8.90;;
76867;SDS011;66168;45.478;11.060;2023-02-15T04:14:30;17.70;;;9.20;;
76867;SDS011;66168;45.478;11.060;2023-02-15T04:17:15;17.80;;;9.60;;
76867;SDS011;66168;45.478;11.060;2023-02-15T04:19:42;18.40;;;9.80;;
76867;SDS011;66168;45.478;11.060;2023-02-15T04:22:27;15.40;;;9.50;;
76867;SDS011;66168;45.478;11.060;2023-02-15T04:25:13;15.10;;;8.30;;
76867;SDS011;66168;45.478;11.060;2023-02-15T04:27:40;15.40;;;8.10;;
76867;SDS011;66168;45.478;11.060;2023-02-15T04:30:12;16.70;;;9.10;;
76867;SDS011;66168;45.478;11.060;2023-02-15T04:32:41;12.80;;;8.00;;
76867;SDS011;66168;45.478;11.060;2023-02-15T04:35:08;13.90;;;8.00;;
76867;SDS011;66168;45.478;11.060;2023-02-15T04:37:35;17.00;;;8.00;;
76867;SDS011;66168;45.478;11.060;2023-02-15T04:40:03;14.00;;;7.60;;
76867;SDS011;66168;45.478;11.060;2023-02-15T04:42:30;13.70;;;8.50;;
76867;SDS011;66168;45.478;11.060;2023-02-15T04:44:57;15.10;;;7.90;;
76867;SDS011;66168;45.478;11.060;2023-02-15T04:47:24;14.40;;;8.40;;
76867;SDS011;66168;45.478;11.060;2023-02-15T04:49:51;16.00;;;8.30;;
76867;SDS011;66168;45.478;11.060;2023-02-15T04:52:17;12.10;;;6.70;;
76867;SDS011;66168;45.478;11.060;2023-02-15T04:54:44;13.60;;;8.10;;
76867;SDS011;66168;45.478;11.060;2023-02-15T04:57:12;14.50;;;9.50;;
76867;SDS011;66168;45.478;11.060;2023-02-15T04:59:39;14.30;;;7.90;;
76867;SDS011;66168;45.478;11.060;2023-02-15T05:02:06;14.30;;;8.00;;
76867;SDS011;66168;45.478;11.060;2023-02-15T05:04:33;14.90;;;7.40;;
76867;SDS011;66168;45.478;11.060;2023-02-15T05:06:59;15.00;;;7.40;;
76867;SDS011;66168;45.478;11.060;2023-02-15T05:09:26;14.30;;;7.90;;
76867;SDS011;66168;45.478;11.060;2023-02-15T05:11:53;14.30;;;7.60;;
76867;SDS011;66168;45.478;11.060;2023-02-15T05:14:20;14.20;;;7.50;;
76867;SDS011;66168;45.478;11.060;2023-02-15T05:16:47;14.90;;;7.60;;
76867;SDS011;66168;45.478;11.060;2023-02-15T05:19:13;13.90;;;7.00;;
76867;SDS011;66168;45.478;11.060;2023-02-15T05:21:40;15.40;;;8.30;;
76867;SDS011;66168;45.478;11.060;2023-02-15T05:24:07;23.30;;;12.20;;
76867;SDS011;66168;45.478;11.060;2023-02-15T05:26:53;24.80;;;11.70;;
76867;SDS011;66168;45.478;11.060;2023-02-15T05:29:39;15.70;;;8.90;;
76867;SDS011;66168;45.478;11.060;2023-02-15T05:32:05;16.70;;;8.40;;
76867;SDS011;66168;45.478;11.060;2023-02-15T05:34:32;14.30;;;7.70;;
76867;SDS011;66168;45.478;11.060;2023-02-15T05:36:59;14.90;;;8.50;;
76867;SDS011;66168;45.478;11.060;2023-02-15T05:39:26;14.40;;;8.50;;
76867;SDS011;66168;45.478;11.060;2023-02-15T05:41:52;18.30;;;11.40;;
76867;SDS011;66168;45.478;11.060;2023-02-15T05:44:19;20.10;;;11.10;;
76867;SDS011;66168;45.478;11.060;2023-02-15T05:46:46;21.80;;;10.90;;
76867;SDS011;66168;45.478;11.060;2023-02-15T05:49:12;24.40;;;13.10;;
76867;SDS011;66168;45.478;11.060;2023-02-15T05:51:39;31.00;;;14.00;;
76867;SDS011;66168;45.478;11.060;2023-02-15T05:54:05;25.80;;;13.30;;
76867;SDS011;66168;45.478;11.060;2023-02-15T05:56:32;26.10;;;13.60;;
76867;SDS011;66168;45.478;11.060;2023-02-15T05:58:59;25.80;;;13.40;;
76867;SDS011;66168;45.478;11.060;2023-02-15T06:01:25;25.70;;;13.50;;
76867;SDS011;66168;45.478;11.060;2023-02-15T06:03:52;25.60;;;14.10;;
76867;SDS011;66168;45.478;11.060;2023-02-15T06:06:19;22.60;;;12.00;;
76867;SDS011;66168;45.478;11.060;2023-02-15T06:08:45;25.10;;;13.90;;
76867;SDS011;66168;45.478;11.060;2023-02-15T06:11:12;21.80;;;12.40;;
76867;SDS011;66168;45.478;11.060;2023-02-15T06:13:39;22.30;;;12.80;;
76867;SDS011;66168;45.478;11.060;2023-02-15T06:16:06;19.90;;;11.30;;
76867;SDS011;66168;45.478;11.060;2023-02-15T06:18:33;19.90;;;12.10;;
76867;SDS011;66168;45.478;11.060;2023-02-15T06:21:00;25.10;;;12.90;;
76867;SDS011;66168;45.478;11.060;2023-02-15T06:23:27;21.40;;;11.90;;
76867;SDS011;66168;45.478;11.060;2023-02-15T06:25:54;23.40;;;13.10;;
76867;SDS011;66168;45.478;11.060;2023-02-15T06:28:20;22.50;;;12.20;;
76867;SDS011;66168;45.478;11.060;2023-02-15T06:30:47;19.70;;;11.40;;
76867;SDS011;66168;45.478;11.060;2023-02-15T06:33:14;29.60;;;17.20;;
76867;SDS011;66168;45.478;11.060;2023-02-15T06:35:40;44.00;;;21.30;;
76867;SDS011;66168;45.478;11.060;2023-02-15T06:38:07;37.90;;;19.20;;
76867;SDS011;66168;45.478;11.060;2023-02-15T06:40:34;29.90;;;17.00;;
76867;SDS011;66168;45.478;11.060;2023-02-15T06:43:00;28.50;;;14.90;;
76867;SDS011;66168;45.478;11.060;2023-02-15T06:45:27;23.10;;;11.60;;
76867;SDS011;66168;45.478;11.060;2023-02-15T06:47:54;22.20;;;11.90;;
76867;SDS011;66168;45.478;11.060;2023-02-15T06:50:20;17.80;;;10.80;;
76867;SDS011;66168;45.478;11.060;2023-02-15T06:52:47;20.50;;;10.40;;
76867;SDS011;66168;45.478;11.060;2023-02-15T06:55:14;20.30;;;10.40;;
76867;SDS011;66168;45.478;11.060;2023-02-15T06:57:41;20.90;;;10.50;;
76867;SDS011;66168;45.478;11.060;2023-02-15T07:00:08;19.60;;;10.00;;
76867;SDS011;66168;45.478;11.060;2023-02-15T07:02:35;20.80;;;10.50;;
76867;SDS011;66168;45.478;11.060;2023-02-15T07:05:02;21.30;;;10.30;;
76867;SDS011;66168;45.478;11.060;2023-02-15T07:07:31;21.50;;;9.60;;
76867;SDS011;66168;45.478;11.060;2023-02-15T07:09:58;20.50;;;10.40;;
76867;SDS011;66168;45.478;11.060;2023-02-15T07:12:25;18.90;;;11.10;;
76867;SDS011;66168;45.478;11.060;2023-02-15T07:15:12;19.80;;;10.30;;
76867;SDS011;66168;45.478;11.060;2023-02-15T07:17:41;18.50;;;10.00;;
76867;SDS011;66168;45.478;11.060;2023-02-15T07:20:09;25.30;;;12.20;;
76867;SDS011;66168;45.478;11.060;2023-02-15T07:22:38;29.20;;;14.30;;
76867;SDS011;66168;45.478;11.060;2023-02-15T07:25:06;28.80;;;14.40;;
76867;SDS011;66168;45.478;11.060;2023-02-15T07:27:34;32.40;;;16.60;;
76867;SDS011;66168;45.478;11.060;2023-02-15T07:30:02;34.40;;;16.20;;
76867;SDS011;66168;45.478;11.060;2023-02-15T07:32:30;32.10;;;16.80;;
76867;SDS011;66168;45.478;11.060;2023-02-15T07:34:58;30.10;;;16.00;;
76867;SDS011;66168;45.478;11.060;2023-02-15T07:37:26;33.20;;;16.80;;
76867;SDS011;66168;45.478;11.060;2023-02-15T07:39:54;29.50;;;16.10;;
76867;SDS011;66168;45.478;11.060;2023-02-15T07:42:21;35.80;;;17.40;;
76867;SDS011;66168;45.478;11.060;2023-02-15T07:44:48;28.10;;;15.50;;
76867;SDS011;66168;45.478;11.060;2023-02-15T07:47:15;35.60;;;17.30;;
76867;SDS011;66168;45.478;11.060;2023-02-15T07:49:42;34.40;;;17.20;;
76867;SDS011;66168;45.478;11.060;2023-02-15T07:52:09;30.50;;;17.40;;
76867;SDS011;66168;45.478;11.060;2023-02-15T07:54:35;31.00;;;16.40;;
76867;SDS011;66168;45.478;11.060;2023-02-15T07:57:02;27.50;;;16.60;;
76867;SDS011;66168;45.478;11.060;2023-02-15T07:59:29;27.60;;;15.50;;
76867;SDS011;66168;45.478;11.060;2023-02-15T08:01:55;29.60;;;14.20;;
76867;SDS011;66168;45.478;11.060;2023-02-15T08:04:23;27.00;;;14.10;;
76867;SDS011;66168;45.478;11.060;2023-02-15T08:06:52;25.70;;;13.90;;
76867;SDS011;66168;45.478;11.060;2023-02-15T08:09:20;24.10;;;14.90;;
76867;SDS011;66168;45.478;11.060;2023-02-15T08:11:48;25.20;;;14.60;;
76867;SDS011;66168;45.478;11.060;2023-02-15T08:14:16;26.70;;;15.10;;
76867;SDS011;66168;45.478;11.060;2023-02-15T08:16:51;30.80;;;16.40;;
76867;SDS011;66168;45.478;11.060;2023-02-15T08:21:54;26.40;;;15.40;;
76867;SDS011;66168;45.478;11.060;2023-02-15T08:24:24;26.00;;;13.80;;
76867;SDS011;66168;45.478;11.060;2023-02-15T08:26:53;26.20;;;15.70;;
76867;SDS011;66168;45.478;11.060;2023-02-15T08:29:21;26.90;;;15.40;;
76867;SDS011;66168;45.478;11.060;2023-02-15T08:31:50;25.30;;;14.70;;
76867;SDS011;66168;45.478;11.060;2023-02-15T08:34:20;29.40;;;14.40;;
76867;SDS011;66168;45.478;11.060;2023-02-15T08:36:47;34.00;;;17.70;;
76867;SDS011;66168;45.478;11.060;2023-02-15T08:39:14;34.30;;;18.40;;
76867;SDS011;66168;45.478;11.060;2023-02-15T08:41:42;29.90;;;17.00;;
76867;SDS011;66168;45.478;11.060;2023-02-15T08:44:10;35.20;;;19.00;;
76867;SDS011;66168;45.478;11.060;2023-02-15T08:46:38;34.10;;;19.00;;
76867;SDS011;66168;45.478;11.060;2023-02-15T08:49:08;32.50;;;19.30;;
76867;SDS011;66168;45.478;11.060;2023-02-15T08:51:36;31.10;;;18.10;;
76867;SDS011;66168;45.478;11.060;2023-02-15T08:54:06;33.80;;;18.70;;
76867;SDS011;66168;45.478;11.060;2023-02-15T08:56:39;31.90;;;17.00;;
76867;SDS011;66168;45.478;11.060;2023-02-15T08:59:10;34.50;;;17.60;;
76867;SDS011;66168;45.478;11.060;2023-02-15T09:01:40;34.10;;;18.90;;
76867;SDS011;66168;45.478;11.060;2023-02-15T09:04:07;34.80;;;18.30;;
76867;SDS011;66168;45.478;11.060;2023-02-15T09:06:36;30.30;;;16.10;;
76867;SDS011;66168;45.478;11.060;2023-02-15T09:09:04;32.50;;;17.90;;
76867;SDS011;66168;45.478;11.060;2023-02-15T09:11:33;33.00;;;16.90;;
76867;SDS011;66168;45.478;11.060;2023-02-15T09:14:03;32.60;;;18.60;;
76867;SDS011;66168;45.478;11.060;2023-02-15T09:16:33;32.90;;;18.00;;
76867;SDS011;66168;45.478;11.060;2023-02-15T09:19:00;35.20;;;19.80;;
76867;SDS011;66168;45.478;11.060;2023-02-15T09:21:31;34.20;;;19.80;;
76867;SDS011;66168;45.478;11.060;2023-02-15T09:24:00;35.80;;;18.10;;
76867;SDS011;66168;45.478;11.060;2023-02-15T09:26:29;33.10;;;18.20;;
76867;SDS011;66168;45.478;11.060;2023-02-15T09:28:58;35.50;;;18.80;;
76867;SDS011;66168;45.478;11.060;2023-02-15T09:31:28;31.90;;;19.00;;
76867;SDS011;66168;45.478;11.060;2023-02-15T09:34:00;31.20;;;17.90;;
76867;SDS011;66168;45.478;11.060;2023-02-15T09:39:14;31.70;;;17.80;;
76867;SDS011;66168;45.478;11.060;2023-02-15T09:42:04;32.70;;;18.30;;
76867;SDS011;66168;45.478;11.060;2023-02-15T09:55:44;34.40;;;18.00;;
76867;SDS011;66168;45.478;11.060;2023-02-15T09:58:34;39.70;;;21.30;;
76867;SDS011;66168;45.478;11.060;2023-02-15T10:06:54;37.40;;;20.80;;
76867;SDS011;66168;45.478;11.060;2023-02-15T10:20:49;38.20;;;22.60;;
76867;SDS011;66168;45.478;11.060;2023-02-15T10:28:46;39.70;;;22.70;;
76867;SDS011;66168;45.478;11.060;2023-02-15T10:33:54;38.40;;;23.10;;
76867;SDS011;66168;45.478;11.060;2023-02-15T10:47:46;44.50;;;25.20;;
76867;SDS011;66168;45.478;11.060;2023-02-15T10:50:29;47.20;;;26.80;;
76867;SDS011;66168;45.478;11.060;2023-02-15T10:53:24;37.90;;;23.20;;
76867;SDS011;66168;45.478;11.060;2023-02-15T10:56:12;41.40;;;22.70;;
76867;SDS011;66168;45.478;11.060;2023-02-15T11:02:08;44.50;;;27.70;;
76867;SDS011;66168;45.478;11.060;2023-02-15T11:07:23;35.80;;;21.90;;
76867;SDS011;66168;45.478;11.060;2023-02-15T11:10:13;47.30;;;26.40;;
76867;SDS011;66168;45.478;11.060;2023-02-15T11:12:47;42.70;;;24.70;;
76867;SDS011;66168;45.478;11.060;2023-02-15T11:16:17;47.80;;;27.20;;
76867;SDS011;66168;45.478;11.060;2023-02-15T11:21:01;42.40;;;25.90;;
76867;SDS011;66168;45.478;11.060;2023-02-15T11:23:35;45.10;;;26.60;;
76867;SDS011;66168;45.478;11.060;2023-02-15T11:26:12;48.80;;;27.20;;
76867;SDS011;66168;45.478;11.060;2023-02-15T11:28:44;44.60;;;24.10;;
76867;SDS011;66168;45.478;11.060;2023-02-15T11:31:20;39.60;;;23.80;;
76867;SDS011;66168;45.478;11.060;2023-02-15T11:33:51;47.50;;;27.00;;
76867;SDS011;66168;45.478;11.060;2023-02-15T11:36:33;45.30;;;26.10;;
76867;SDS011;66168;45.478;11.060;2023-02-15T11:39:05;39.60;;;22.80;;
76867;SDS011;66168;45.478;11.060;2023-02-15T11:41:37;36.30;;;22.30;;
76867;SDS011;66168;45.478;11.060;2023-02-15T11:46:38;39.90;;;22.30;;
76867;SDS011;66168;45.478;11.060;2023-02-15T11:49:12;43.60;;;25.40;;
76867;SDS011;66168;45.478;11.060;2023-02-15T11:52:07;47.70;;;28.30;;
76867;SDS011;66168;45.478;11.060;2023-02-15T11:54:42;44.20;;;26.40;;
76867;SDS011;66168;45.478;11.060;2023-02-15T11:57:14;32.50;;;19.30;;
76867;SDS011;66168;45.478;11.060;2023-02-15T11:59:49;38.40;;;22.40;;
76867;SDS011;66168;45.478;11.060;2023-02-15T12:02:22;38.40;;;21.80;;
76867;SDS011;66168;45.478;11.060;2023-02-15T12:04:51;42.00;;;25.00;;
76867;SDS011;66168;45.478;11.060;2023-02-15T12:10:28;39.90;;;23.70;;
76867;SDS011;66168;45.478;11.060;2023-02-15T12:13:17;42.00;;;25.00;;
76867;SDS011;66168;45.478;11.060;2023-02-15T12:15:48;46.70;;;28.50;;
76867;SDS011;66168;45.478;11.060;2023-02-15T12:21:09;38.30;;;23.10;;
76867;SDS011;66168;45.478;11.060;2023-02-15T12:24:02;41.70;;;25.70;;
76867;SDS011;66168;45.478;11.060;2023-02-15T12:26:31;36.10;;;20.90;;
76867;SDS011;66168;45.478;11.060;2023-02-15T12:29:01;49.60;;;26.90;;
76867;SDS011;66168;45.478;11.060;2023-02-15T12:31:52;41.30;;;24.00;;
76867;SDS011;66168;45.478;11.060;2023-02-15T12:36:56;43.60;;;25.50;;
76867;SDS011;66168;45.478;11.060;2023-02-15T12:39:27;44.60;;;25.70;;
76867;SDS011;66168;45.478;11.060;2023-02-15T12:42:00;47.00;;;25.70;;
76867;SDS011;66168;45.478;11.060;2023-02-15T12:49:35;42.50;;;25.00;;
76867;SDS011;66168;45.478;11.060;2023-02-15T12:52:13;42.90;;;25.10;;
76867;SDS011;66168;45.478;11.060;2023-02-15T12:54:51;27.40;;;16.10;;
76867;SDS011;66168;45.478;11.060;2023-02-15T12:57:25;38.40;;;23.00;;
76867;SDS011;66168;45.478;11.060;2023-02-15T13:02:34;43.20;;;24.10;;
76867;SDS011;66168;45.478;11.060;2023-02-15T13:05:14;41.30;;;25.60;;
76867;SDS011;66168;45.478;11.060;2023-02-15T13:07:50;38.20;;;22.70;;
76867;SDS011;66168;45.478;11.060;2023-02-15T13:10:22;36.10;;;22.50;;
76867;SDS011;66168;45.478;11.060;2023-02-15T13:12:52;38.60;;;23.40;;
76867;SDS011;66168;45.478;11.060;2023-02-15T13:15:25;39.70;;;22.60;;
76867;SDS011;66168;45.478;11.060;2023-02-15T13:18:04;38.60;;;22.60;;
76867;SDS011;66168;45.478;11.060;2023-02-15T13:20:36;38.40;;;23.00;;
76867;SDS011;66168;45.478;11.060;2023-02-15T13:23:11;40.90;;;23.90;;
76867;SDS011;66168;45.478;11.060;2023-02-15T13:25:48;34.70;;;21.90;;
76867;SDS011;66168;45.478;11.060;2023-02-15T13:28:17;37.20;;;24.40;;
76867;SDS011;66168;45.478;11.060;2023-02-15T13:30:49;33.10;;;19.80;;
76867;SDS011;66168;45.478;11.060;2023-02-15T13:33:35;36.80;;;20.40;;
76867;SDS011;66168;45.478;11.060;2023-02-15T13:41:36;36.00;;;19.60;;
76867;SDS011;66168;45.478;11.060;2023-02-15T13:52:41;35.50;;;19.90;;
76867;SDS011;66168;45.478;11.060;2023-02-15T14:04:15;37.00;;;20.00;;
76867;SDS011;66168;45.478;11.060;2023-02-15T14:12:42;30.00;;;18.20;;
76867;SDS011;66168;45.478;11.060;2023-02-15T14:15:26;33.70;;;18.00;;
76867;SDS011;66168;45.478;11.060;2023-02-15T14:24:06;35.80;;;19.60;;
76867;SDS011;66168;45.478;11.060;2023-02-15T14:27:10;29.20;;;16.90;;
76867;SDS011;66168;45.478;11.060;2023-02-15T14:29:59;42.60;;;20.40;;
76867;SDS011;66168;45.478;11.060;2023-02-15T14:33:03;41.20;;;21.40;;
76867;SDS011;66168;45.478;11.060;2023-02-15T14:35:25;34.70;;;18.60;;
76867;SDS011;66168;45.478;11.060;2023-02-15T14:38:04;39.20;;;21.30;;
76867;SDS011;66168;45.478;11.060;2023-02-15T14:48:57;31.80;;;18.00;;
76867;SDS011;66168;45.478;11.060;2023-02-15T14:56:45;35.20;;;20.10;;
76867;SDS011;66168;45.478;11.060;2023-02-15T14:59:21;28.70;;;16.10;;
76867;SDS011;66168;45.478;11.060;2023-02-15T15:04:35;32.60;;;19.20;;
76867;SDS011;66168;45.478;11.060;2023-02-15T15:07:09;38.70;;;21.10;;
76867;SDS011;66168;45.478;11.060;2023-02-15T15:10:49;43.20;;;23.60;;
76867;SDS011;66168;45.478;11.060;2023-02-15T15:12:53;38.50;;;20.20;;
76867;SDS011;66168;45.478;11.060;2023-02-15T15:17:56;43.80;;;24.10;;
76867;SDS011;66168;45.478;11.060;2023-02-15T15:45:34;38.00;;;22.30;;
76867;SDS011;66168;45.478;11.060;2023-02-15T15:51:06;41.90;;;22.20;;
76867;SDS011;66168;45.478;11.060;2023-02-15T15:53:45;42.50;;;22.90;;
76867;SDS011;66168;45.478;11.060;2023-02-15T15:56:19;41.20;;;21.80;;
76867;SDS011;66168;45.478;11.060;2023-02-15T15:58:50;38.80;;;22.40;;
76867;SDS011;66168;45.478;11.060;2023-02-15T16:01:27;43.10;;;22.80;;
76867;SDS011;66168;45.478;11.060;2023-02-15T16:03:57;41.70;;;22.80;;
76867;SDS011;66168;45.478;11.060;2023-02-15T16:06:35;41.10;;;22.90;;
76867;SDS011;66168;45.478;11.060;2023-02-15T16:09:18;43.80;;;22.90;;
76867;SDS011;66168;45.478;11.060;2023-02-15T16:11:47;38.90;;;22.20;;
76867;SDS011;66168;45.478;11.060;2023-02-15T16:14:38;44.70;;;25.20;;
76867;SDS011;66168;45.478;11.060;2023-02-15T16:17:06;42.40;;;24.30;;
76867;SDS011;66168;45.478;11.060;2023-02-15T16:19:40;48.40;;;25.30;;
76867;SDS011;66168;45.478;11.060;2023-02-15T16:22:19;54.20;;;27.40;;
76867;SDS011;66168;45.478;11.060;2023-02-15T16:27:45;57.50;;;30.40;;
76867;SDS011;66168;45.478;11.060;2023-02-15T16:30:16;55.10;;;28.20;;
76867;SDS011;66168;45.478;11.060;2023-02-15T16:33:15;45.60;;;25.30;;
76867;SDS011;66168;45.478;11.060;2023-02-15T16:35:55;49.50;;;25.80;;
76867;SDS011;66168;45.478;11.060;2023-02-15T16:41:12;42.20;;;23.40;;
76867;SDS011;66168;45.478;11.060;2023-02-15T16:43:42;47.60;;;25.50;;
76867;SDS011;66168;45.478;11.060;2023-02-15T16:46:14;45.80;;;25.20;;
76867;SDS011;66168;45.478;11.060;2023-02-15T16:48:48;45.50;;;25.10;;
76867;SDS011;66168;45.478;11.060;2023-02-15T16:51:20;47.20;;;24.50;;
76867;SDS011;66168;45.478;11.060;2023-02-15T16:53:52;44.80;;;24.30;;
76867;SDS011;66168;45.478;11.060;2023-02-15T16:56:24;43.10;;;23.90;;
76867;SDS011;66168;45.478;11.060;2023-02-15T16:58:54;47.30;;;25.10;;
76867;SDS011;66168;45.478;11.060;2023-02-15T17:01:24;51.20;;;27.20;;
76867;SDS011;66168;45.478;11.060;2023-02-15T17:04:13;67.70;;;33.80;;
76867;SDS011;66168;45.478;11.060;2023-02-15T17:09:54;55.20;;;28.30;;
76867;SDS011;66168;45.478;11.060;2023-02-15T17:15:28;55.70;;;27.90;;
76867;SDS011;66168;45.478;11.060;2023-02-15T17:17:58;52.20;;;25.00;;
76867;SDS011;66168;45.478;11.060;2023-02-15T17:20:47;51.30;;;24.20;;
76867;SDS011;66168;45.478;11.060;2023-02-15T17:23:30;52.70;;;25.90;;
76867;SDS011;66168;45.478;11.060;2023-02-15T17:26:00;45.10;;;22.50;;
76867;SDS011;66168;45.478;11.060;2023-02-15T17:28:40;41.60;;;23.10;;
76867;SDS011;66168;45.478;11.060;2023-02-15T17:31:25;39.30;;;21.60;;
76867;SDS011;66168;45.478;11.060;2023-02-15T17:33:55;45.50;;;22.70;;
76867;SDS011;66168;45.478;11.060;2023-02-15T17:36:29;45.80;;;22.50;;
76867;SDS011;66168;45.478;11.060;2023-02-15T17:41:24;40.50;;;21.10;;
76867;SDS011;66168;45.478;11.060;2023-02-15T17:43:52;39.20;;;21.60;;
76867;SDS011;66168;45.478;11.060;2023-02-15T17:46:19;39.40;;;20.50;;
76867;SDS011;66168;45.478;11.060;2023-02-15T17:48:49;41.70;;;21.90;;
76867;SDS011;66168;45.478;11.060;2023-02-15T17:51:18;40.00;;;21.40;;
76867;SDS011;66168;45.478;11.060;2023-02-15T17:53:47;42.00;;;21.90;;
76867;SDS011;66168;45.478;11.060;2023-02-15T17:56:33;47.00;;;22.60;;
76867;SDS011;66168;45.478;11.060;2023-02-15T17:59:01;41.30;;;22.00;;
76867;SDS011;66168;45.478;11.060;2023-02-15T18:01:36;38.90;;;20.00;;
76867;SDS011;66168;45.478;11.060;2023-02-15T18:04:29;39.20;;;20.00;;
76867;SDS011;66168;45.478;11.060;2023-02-15T18:07:17;39.30;;;21.80;;
76867;SDS011;66168;45.478;11.060;2023-02-15T18:10:13;40.70;;;22.50;;